createdAt,value
2024-04-21T00:00:28.642Z,742.00
2024-04-21T00:01:28.827Z,756.00
2024-04-21T00:02:28.694Z,758.00
2024-04-21T00:03:28.769Z,757.00
2024-04-21T00:04:28.808Z,729.00
2024-04-21T00:05:28.779Z,757.00
2024-04-21T00:06:28.808Z,770.00
2024-04-21T00:07:28.852Z,731.00
2024-04-21T00:08:28.871Z,723.00
2024-04-21T00:09:28.893Z,751.00
2024-04-21T00:10:28.921Z,719.00
2024-04-21T00:11:29.032Z,731.00
2024-04-21T00:12:28.973Z,730.00
2024-04-21T00:13:29.014Z,732.00
2024-04-21T00:14:29.029Z,736.00
2024-04-21T00:15:29.056Z,740.00
2024-04-21T00:16:29.160Z,726.00
2024-04-21T00:17:29.148Z,703.00
2024-04-21T00:18:29.141Z,721.00
2024-04-21T00:19:29.142Z,709.00
2024-04-21T00:20:29.186Z,702.00
2024-04-21T00:21:29.208Z,718.00
2024-04-21T00:22:29.217Z,717.00
2024-04-21T00:23:29.261Z,686.00
2024-04-21T00:24:29.310Z,721.00
2024-04-21T00:25:29.320Z,702.00
2024-04-21T00:26:29.346Z,704.00
2024-04-21T00:27:29.364Z,686.00
2024-04-21T00:28:29.400Z,709.00
2024-04-21T00:29:29.410Z,725.00
2024-04-21T00:30:29.444Z,727.00
2024-04-21T00:31:29.484Z,707.00
2024-04-21T00:32:29.532Z,713.00
2024-04-21T00:33:29.605Z,678.00
2024-04-21T00:34:29.568Z,711.00
2024-04-21T00:35:29.585Z,704.00
2024-04-21T00:36:29.602Z,713.00
2024-04-21T00:37:29.643Z,698.00
2024-04-21T00:38:29.663Z,682.00
2024-04-21T00:39:29.710Z,677.00
2024-04-21T00:40:29.771Z,703.00
2024-04-21T00:41:29.751Z,698.00
2024-04-21T00:42:29.779Z,666.00
2024-04-21T00:43:29.809Z,698.00
2024-04-21T00:44:29.833Z,684.00
2024-04-21T00:45:36.824Z,692.00
2024-04-21T00:46:30.969Z,692.00
2024-04-21T00:47:29.950Z,684.00
2024-04-21T00:48:29.940Z,697.00
2024-04-21T00:49:29.967Z,682.00
2024-04-21T00:50:29.994Z,685.00
2024-04-21T00:51:30.032Z,717.00
2024-04-21T00:52:30.043Z,704.00
2024-04-21T00:53:30.052Z,720.00
2024-04-21T00:54:30.081Z,707.00
2024-04-21T00:55:30.118Z,699.00
2024-04-21T00:56:30.319Z,667.00
2024-04-21T00:57:30.172Z,706.00
2024-04-21T00:58:30.181Z,678.00
2024-04-21T00:59:30.208Z,702.00
2024-04-21T01:00:30.236Z,671.00
2024-04-21T01:01:30.342Z,685.00
2024-04-21T01:02:30.379Z,680.00
2024-04-21T01:03:30.307Z,704.00
2024-04-21T01:04:30.436Z,689.00
2024-04-21T01:05:30.348Z,708.00
2024-04-21T01:06:30.365Z,706.00
2024-04-21T01:07:30.383Z,723.00
2024-04-21T01:08:30.408Z,720.00
2024-04-21T01:09:30.448Z,695.00
2024-04-21T01:10:30.466Z,703.00
2024-04-21T01:11:30.486Z,691.00
2024-04-21T01:12:30.505Z,707.00
2024-04-21T01:13:30.531Z,743.00
2024-04-21T01:14:30.565Z,715.00
2024-04-21T01:15:30.584Z,696.00
2024-04-21T01:16:30.613Z,687.00
2024-04-21T01:17:30.758Z,703.00
2024-04-21T01:18:30.708Z,716.00
2024-04-21T01:19:30.707Z,711.00
2024-04-21T01:20:30.755Z,705.00
2024-04-21T01:21:30.776Z,689.00
2024-04-21T01:22:30.826Z,709.00
2024-04-21T01:23:30.857Z,715.00
2024-04-21T01:24:30.891Z,673.00
2024-04-21T01:25:30.932Z,674.00
2024-04-21T01:26:30.962Z,667.00
2024-04-21T01:27:31.001Z,681.00
2024-04-21T01:28:31.021Z,674.00
2024-04-21T01:29:31.058Z,682.00
2024-04-21T01:30:31.089Z,658.00
2024-04-21T01:31:31.120Z,668.00
2024-04-21T01:32:31.250Z,658.00
2024-04-21T01:33:31.201Z,651.00
2024-04-21T01:34:31.243Z,661.00
2024-04-21T01:35:31.261Z,648.00
2024-04-21T01:36:31.295Z,647.00
2024-04-21T01:37:31.327Z,651.00
2024-04-21T01:38:31.376Z,652.00
2024-04-21T01:39:31.435Z,657.00
2024-04-21T01:40:31.535Z,676.00
2024-04-21T01:41:31.487Z,681.00
2024-04-21T01:42:31.537Z,661.00
2024-04-21T01:43:31.563Z,660.00
2024-04-21T01:44:31.586Z,666.00
2024-04-21T01:45:31.629Z,662.00
2024-04-21T01:46:31.653Z,659.00
2024-04-21T01:47:31.721Z,657.00
2024-04-21T01:48:31.744Z,668.00
2024-04-21T01:49:31.789Z,652.00
2024-04-21T01:50:31.806Z,666.00
2024-04-21T01:51:31.844Z,686.00
2024-04-21T01:52:31.881Z,678.00
2024-04-21T01:53:31.915Z,664.00
2024-04-21T01:54:31.952Z,653.00
2024-04-21T01:55:31.999Z,653.00
2024-04-21T01:56:32.035Z,681.00
2024-04-21T01:57:32.063Z,691.00
2024-04-21T01:58:32.105Z,660.00
2024-04-21T01:59:32.133Z,669.00
2024-04-21T02:00:32.162Z,662.00
2024-04-21T02:01:32.311Z,674.00
2024-04-21T02:02:32.250Z,679.00
2024-04-21T02:03:32.304Z,699.00
2024-04-21T02:04:32.357Z,695.00
2024-04-21T02:05:32.333Z,678.00
2024-04-21T02:06:32.400Z,699.00
2024-04-21T02:07:32.418Z,728.00
2024-04-21T02:08:32.461Z,710.00
2024-04-21T02:09:32.503Z,718.00
2024-04-21T02:10:32.535Z,711.00
2024-04-21T02:11:33.145Z,724.00
2024-04-21T02:12:32.610Z,750.00
2024-04-21T02:13:32.656Z,737.00
2024-04-21T02:14:32.681Z,746.00
2024-04-21T02:15:32.721Z,747.00
2024-04-21T02:16:32.754Z,754.00
2024-04-21T02:17:32.849Z,782.00
2024-04-21T02:18:32.837Z,755.00
2024-04-21T02:19:32.923Z,741.00
2024-04-21T02:20:32.919Z,746.00
2024-04-21T02:21:32.959Z,750.00
2024-04-21T02:22:33.002Z,729.00
2024-04-21T02:23:33.049Z,761.00
2024-04-21T02:24:33.083Z,766.00
2024-04-21T02:25:33.130Z,761.00
2024-04-21T02:26:33.158Z,745.00
2024-04-21T02:27:33.198Z,737.00
2024-04-21T02:28:33.244Z,717.00
2024-04-21T02:29:33.292Z,738.00
2024-04-21T02:30:33.621Z,774.00
2024-04-21T02:31:33.375Z,763.00
2024-04-21T02:32:33.500Z,763.00
2024-04-21T02:33:33.515Z,743.00
2024-04-21T02:34:33.489Z,759.00
2024-04-21T02:35:33.534Z,728.00
2024-04-21T02:36:33.580Z,756.00
2024-04-21T02:37:33.612Z,730.00
2024-04-21T02:38:33.667Z,746.00
2024-04-21T02:39:33.681Z,770.00
2024-04-21T02:40:33.731Z,769.00
2024-04-21T02:41:33.764Z,770.00
2024-04-21T02:42:33.814Z,756.00
2024-04-21T02:43:33.829Z,774.00
2024-04-21T02:44:33.872Z,810.00
2024-04-21T02:45:33.904Z,779.00
2024-04-21T02:46:33.995Z,790.00
2024-04-21T02:47:34.012Z,799.00
2024-04-21T02:48:34.079Z,776.00
2024-04-21T02:49:34.048Z,786.00
2024-04-21T02:50:34.090Z,769.00
2024-04-21T02:51:34.123Z,757.00
2024-04-21T02:52:34.165Z,786.00
2024-04-21T02:53:34.207Z,774.00
2024-04-21T02:54:34.250Z,797.00
2024-04-21T02:55:34.294Z,768.00
2024-04-21T02:56:34.325Z,782.00
2024-04-21T02:57:34.383Z,780.00
2024-04-21T02:58:34.431Z,766.00
2024-04-21T02:59:34.469Z,794.00
2024-04-21T03:00:34.520Z,799.00
2024-04-21T03:01:34.653Z,763.00
2024-04-21T03:02:34.607Z,809.00
2024-04-21T03:03:34.645Z,795.00
2024-04-21T03:04:34.722Z,791.00
2024-04-21T03:05:34.687Z,811.00
2024-04-21T03:06:34.715Z,797.00
2024-04-21T03:07:34.752Z,804.00
2024-04-21T03:08:34.798Z,803.00
2024-04-21T03:09:34.838Z,810.00
2024-04-21T03:10:34.868Z,805.00
2024-04-21T03:11:34.939Z,793.00
2024-04-21T03:12:34.935Z,796.00
2024-04-21T03:13:34.984Z,807.00
2024-04-21T03:14:35.011Z,799.00
2024-04-21T03:15:35.068Z,805.00
2024-04-21T03:16:35.089Z,783.00
2024-04-21T03:17:35.218Z,800.00
2024-04-21T03:18:35.170Z,801.00
2024-04-21T03:19:35.222Z,806.00
2024-04-21T03:20:35.309Z,807.00
2024-04-21T03:21:35.287Z,807.00
2024-04-21T03:22:35.318Z,815.00
2024-04-21T03:23:35.352Z,785.00
2024-04-21T03:24:35.393Z,787.00
2024-04-21T03:25:35.424Z,779.00
2024-04-21T03:26:35.471Z,820.00
2024-04-21T03:27:35.491Z,842.00
2024-04-21T03:28:35.524Z,839.00
2024-04-21T03:29:35.578Z,833.00
2024-04-21T03:30:35.626Z,805.00
2024-04-21T03:31:35.708Z,829.00
2024-04-21T03:32:35.855Z,799.00
2024-04-21T03:33:35.826Z,795.00
2024-04-21T03:34:35.805Z,828.00
2024-04-21T03:35:35.776Z,809.00
2024-04-21T03:36:35.821Z,820.00
2024-04-21T03:37:35.849Z,808.00
2024-04-21T03:38:35.933Z,817.00
2024-04-21T03:39:35.948Z,805.00
2024-04-21T03:40:35.967Z,842.00
2024-04-21T03:41:36.005Z,825.00
2024-04-21T03:42:36.046Z,855.00
2024-04-21T03:43:36.158Z,867.00
2024-04-21T03:44:36.115Z,870.00
2024-04-21T03:45:36.159Z,890.00
2024-04-21T03:46:36.278Z,889.00
2024-04-21T03:47:36.311Z,901.00
2024-04-21T03:48:36.297Z,918.00
2024-04-21T03:49:36.321Z,889.00
2024-04-21T03:50:36.342Z,938.00
2024-04-21T03:51:36.374Z,912.00
2024-04-21T03:52:36.415Z,924.00
2024-04-21T03:53:36.452Z,953.00
2024-04-21T03:54:36.473Z,945.00
2024-04-21T03:55:36.512Z,934.00
2024-04-21T03:56:36.565Z,942.00
2024-04-21T03:57:36.582Z,931.00
2024-04-21T03:58:36.716Z,909.00
2024-04-21T03:59:36.662Z,911.00
2024-04-21T04:00:36.717Z,894.00
2024-04-21T04:01:36.762Z,914.00
2024-04-21T04:02:36.770Z,900.00
2024-04-21T04:03:36.834Z,883.00
2024-04-21T04:04:36.973Z,888.00
2024-04-21T04:05:36.893Z,867.00
2024-04-21T04:06:36.927Z,881.00
2024-04-21T04:07:36.964Z,889.00
2024-04-21T04:08:37.005Z,881.00
2024-04-21T04:09:37.047Z,864.00
2024-04-21T04:10:37.183Z,864.00
2024-04-21T04:11:37.239Z,858.00
2024-04-21T04:12:37.160Z,861.00
2024-04-21T04:13:37.196Z,849.00
2024-04-21T04:14:37.256Z,889.00
2024-04-21T04:15:37.287Z,890.00
2024-04-21T04:16:37.304Z,887.00
2024-04-21T04:17:37.400Z,891.00
2024-04-21T04:18:37.383Z,890.00
2024-04-21T04:19:37.500Z,871.00
2024-04-21T04:20:38.516Z,872.00
2024-04-21T04:21:37.482Z,882.00
2024-04-21T04:22:37.523Z,846.00
2024-04-21T04:23:37.570Z,860.00
2024-04-21T04:24:37.604Z,870.00
2024-04-21T04:25:37.662Z,887.00
2024-04-21T04:26:37.756Z,869.00
2024-04-21T04:27:37.736Z,882.00
2024-04-21T04:28:37.779Z,878.00
2024-04-21T04:29:37.820Z,876.00
2024-04-21T04:30:37.851Z,894.00
2024-04-21T04:31:37.884Z,875.00
2024-04-21T04:32:38.060Z,867.00
2024-04-21T04:33:38.139Z,877.00
2024-04-21T04:34:38.063Z,890.00
2024-04-21T04:35:38.055Z,885.00
2024-04-21T04:36:38.096Z,880.00
2024-04-21T04:37:38.139Z,888.00
2024-04-21T04:38:38.174Z,860.00
2024-04-21T04:39:38.214Z,840.00
2024-04-21T04:40:38.267Z,844.00
2024-04-21T04:41:38.300Z,889.00
2024-04-21T04:42:38.347Z,861.00
2024-04-21T04:43:38.372Z,815.00
2024-04-21T04:44:38.425Z,849.00
2024-04-21T04:45:38.485Z,836.00
2024-04-21T04:46:38.487Z,856.00
2024-04-21T04:47:38.597Z,841.00
2024-04-21T04:48:38.571Z,852.00
2024-04-21T04:49:38.630Z,828.00
2024-04-21T04:50:38.656Z,848.00
2024-04-21T04:51:38.704Z,853.00
2024-04-21T04:52:38.741Z,864.00
2024-04-21T04:53:40.876Z,865.00
2024-04-21T04:54:38.817Z,879.00
2024-04-21T04:55:38.874Z,866.00
2024-04-21T04:56:38.889Z,906.00
2024-04-21T04:57:38.924Z,913.00
2024-04-21T04:58:38.949Z,884.00
2024-04-21T04:59:46.285Z,600.00
2024-04-21T05:00:46.346Z,600.00
2024-04-21T05:01:46.385Z,600.00
2024-04-21T05:02:46.306Z,600.00
2024-04-21T05:03:46.364Z,600.00
2024-04-21T05:04:46.368Z,604.00
2024-04-21T05:05:46.263Z,606.00
2024-04-21T05:06:46.281Z,607.00
2024-04-21T05:07:46.256Z,613.00
2024-04-21T05:08:46.247Z,618.00
2024-04-21T05:09:46.396Z,618.00
2024-04-21T05:10:46.225Z,622.00
2024-04-21T05:11:46.344Z,622.00
2024-04-21T05:12:46.291Z,621.00
2024-04-21T05:13:46.205Z,614.00
2024-04-21T05:14:46.202Z,624.00
2024-04-21T05:15:46.206Z,623.00
2024-04-21T05:16:46.252Z,614.00
2024-04-21T05:17:46.279Z,623.00
2024-04-21T05:18:46.186Z,620.00
2024-04-21T05:19:46.188Z,616.00
2024-04-21T05:20:46.196Z,618.00
2024-04-21T05:21:46.214Z,619.00
2024-04-21T05:22:46.149Z,628.00
2024-04-21T05:23:46.146Z,623.00
2024-04-21T05:24:46.304Z,631.00
2024-04-21T05:25:46.134Z,619.00
2024-04-21T05:26:46.124Z,621.00
2024-04-21T05:27:46.156Z,616.00
2024-04-21T05:28:49.895Z,624.00
2024-04-21T05:29:46.127Z,614.00
2024-04-21T05:30:46.237Z,611.00
2024-04-21T05:31:46.145Z,613.00
2024-04-21T05:32:47.215Z,614.00
2024-04-21T05:33:46.103Z,613.00
2024-04-21T05:34:46.095Z,618.00
2024-04-21T05:35:46.095Z,619.00
2024-04-21T05:36:46.097Z,640.00
2024-04-21T05:37:46.077Z,639.00
2024-04-21T05:38:46.089Z,654.00
2024-04-21T05:39:46.115Z,646.00
2024-04-21T05:40:46.077Z,656.00
2024-04-21T05:41:46.082Z,654.00
2024-04-21T05:42:46.098Z,650.00
2024-04-21T05:43:46.093Z,663.00
2024-04-21T05:44:47.318Z,660.00
2024-04-21T05:45:46.112Z,654.00
2024-04-21T05:46:46.108Z,657.00
2024-04-21T05:47:46.185Z,644.00
2024-04-21T05:48:46.091Z,645.00
2024-04-21T05:49:46.178Z,652.00
2024-04-21T05:50:46.089Z,658.00
2024-04-21T05:51:46.076Z,643.00
2024-04-21T05:52:46.093Z,641.00
2024-04-21T05:53:46.111Z,646.00
2024-04-21T05:54:46.132Z,647.00
2024-04-21T05:55:46.154Z,650.00
2024-04-21T05:56:46.195Z,639.00
2024-04-21T05:57:46.192Z,648.00
2024-04-21T05:58:46.199Z,637.00
2024-04-21T05:59:46.226Z,647.00
2024-04-21T06:00:46.297Z,647.00
2024-04-21T06:01:46.261Z,652.00
2024-04-21T06:02:46.311Z,647.00
2024-04-21T06:03:46.302Z,654.00
2024-04-21T06:04:46.381Z,653.00
2024-04-21T06:05:46.303Z,647.00
2024-04-21T06:06:46.316Z,655.00
2024-04-21T06:07:46.346Z,660.00
2024-04-21T06:08:46.355Z,658.00
2024-04-21T06:09:46.370Z,663.00
2024-04-21T06:10:46.381Z,684.00
2024-04-21T06:11:46.424Z,670.00
2024-04-21T06:12:46.404Z,715.00
2024-04-21T06:13:46.420Z,730.00
2024-04-21T06:14:46.445Z,696.00
2024-04-21T06:15:46.449Z,724.00
2024-04-21T06:16:46.450Z,684.00
2024-04-21T06:17:46.538Z,700.00
2024-04-21T06:18:49.412Z,684.00
2024-04-21T06:19:46.499Z,662.00
2024-04-21T06:20:46.477Z,658.00
2024-04-21T06:21:46.467Z,672.00
2024-04-21T06:22:46.468Z,656.00
2024-04-21T06:23:46.460Z,648.00
2024-04-21T06:24:46.463Z,641.00
2024-04-21T06:25:46.458Z,645.00
2024-04-21T06:26:48.467Z,640.00
2024-04-21T06:27:46.433Z,641.00
2024-04-21T06:28:46.449Z,638.00
2024-04-21T06:29:46.425Z,643.00
2024-04-21T06:30:46.448Z,643.00
2024-04-21T06:31:46.475Z,639.00
2024-04-21T06:32:46.475Z,625.00
2024-04-21T06:33:46.407Z,636.00
2024-04-21T06:34:46.423Z,628.00
2024-04-21T06:35:46.405Z,636.00
2024-04-21T06:36:46.398Z,622.00
2024-04-21T06:37:46.371Z,620.00
2024-04-21T06:38:46.374Z,626.00
2024-04-21T06:39:46.367Z,624.00
2024-04-21T06:40:46.363Z,623.00
2024-04-21T06:41:46.351Z,614.00
2024-04-21T06:42:46.335Z,615.00
2024-04-21T06:43:46.342Z,619.00
2024-04-21T06:44:46.328Z,608.00
2024-04-21T06:45:46.320Z,616.00
2024-04-21T06:46:46.302Z,608.00
2024-04-21T06:47:46.339Z,622.00
2024-04-21T06:48:46.503Z,622.00
2024-04-21T06:49:46.298Z,628.00
2024-04-21T06:50:46.307Z,641.00
2024-04-21T06:51:46.281Z,641.00
2024-04-21T06:52:46.277Z,636.00
2024-04-21T06:53:46.271Z,639.00
2024-04-21T06:54:46.264Z,627.00
2024-04-21T06:55:46.272Z,630.00
2024-04-21T06:56:46.258Z,629.00
2024-04-21T06:57:46.245Z,629.00
2024-04-21T06:58:46.244Z,617.00
2024-04-21T06:59:46.244Z,613.00
2024-04-21T07:00:46.236Z,619.00
2024-04-21T07:01:46.329Z,610.00
2024-04-21T07:02:46.216Z,607.00
2024-04-21T07:03:46.222Z,599.00
2024-04-21T07:04:46.205Z,600.00
2024-04-21T07:05:46.212Z,605.00
2024-04-21T07:06:46.188Z,601.00
2024-04-21T07:07:46.221Z,603.00
2024-04-21T07:08:46.181Z,602.00
2024-04-21T07:09:46.181Z,599.00
2024-04-21T07:10:46.174Z,612.00
2024-04-21T07:11:46.217Z,604.00
2024-04-21T07:12:46.168Z,600.00
2024-04-21T07:13:46.211Z,600.00
2024-04-21T07:14:46.168Z,604.00
2024-04-21T07:15:46.150Z,614.00
2024-04-21T07:16:46.150Z,623.00
2024-04-21T07:17:46.263Z,622.00
2024-04-21T07:18:46.195Z,628.00
2024-04-21T07:19:46.185Z,625.00
2024-04-21T07:20:46.129Z,636.00
2024-04-21T07:21:46.118Z,627.00
2024-04-21T07:22:46.113Z,635.00
2024-04-21T07:23:46.095Z,632.00
2024-04-21T07:24:46.111Z,637.00
2024-04-21T07:25:46.111Z,633.00
2024-04-21T07:26:46.075Z,637.00
2024-04-21T07:27:46.070Z,635.00
2024-04-21T07:28:46.111Z,631.00
2024-04-21T07:29:46.142Z,635.00
2024-04-21T07:30:46.203Z,631.00
2024-04-21T07:31:46.270Z,625.00
2024-04-21T07:32:46.300Z,622.00
2024-04-21T07:33:46.326Z,619.00
2024-04-21T07:34:46.380Z,610.00
2024-04-21T07:35:46.448Z,611.00
2024-04-21T07:36:46.508Z,602.00
2024-04-21T07:37:46.583Z,601.00
2024-04-21T07:38:46.684Z,602.00
2024-04-21T07:39:46.653Z,600.00
2024-04-21T07:40:46.707Z,606.00
2024-04-21T07:41:46.726Z,603.00
2024-04-21T07:42:46.776Z,602.00
2024-04-21T07:43:46.815Z,606.00
2024-04-21T07:44:46.851Z,612.00
2024-04-21T07:45:46.899Z,600.00
2024-04-21T07:46:46.937Z,605.00
2024-04-21T07:47:47.014Z,601.00
2024-04-21T07:48:47.009Z,603.00
2024-04-21T07:49:47.032Z,608.00
2024-04-21T07:50:47.032Z,623.00
2024-04-21T07:51:47.056Z,623.00
2024-04-21T07:52:47.085Z,637.00
2024-04-21T07:53:47.227Z,640.00
2024-04-21T07:54:47.183Z,638.00
2024-04-21T07:55:47.188Z,629.00
2024-04-21T07:56:47.211Z,626.00
2024-04-21T07:57:47.222Z,626.00
2024-04-21T07:58:47.277Z,625.00
2024-04-21T07:59:47.342Z,621.00
2024-04-21T08:00:47.410Z,620.00
2024-04-21T08:01:47.487Z,613.00
2024-04-21T08:02:47.487Z,610.00
2024-04-21T08:03:47.534Z,606.00
2024-04-21T08:04:47.526Z,607.00
2024-04-21T08:05:47.563Z,606.00
2024-04-21T08:06:47.584Z,611.00
2024-04-21T08:07:47.624Z,604.00
2024-04-21T08:08:53.314Z,608.00
2024-04-21T08:09:48.650Z,603.00
2024-04-21T08:10:54.196Z,606.00
2024-04-21T08:11:48.688Z,608.00
2024-04-21T08:12:47.628Z,608.00
2024-04-21T08:13:47.633Z,605.00
2024-04-21T08:14:47.616Z,611.00
2024-04-21T08:15:47.633Z,617.00
2024-04-21T08:16:47.610Z,619.00
2024-04-21T08:17:47.644Z,617.00
2024-04-21T08:18:47.687Z,620.00
2024-04-21T08:19:47.579Z,612.00
2024-04-21T08:20:50.838Z,609.00
2024-04-21T08:21:47.736Z,602.00
2024-04-21T08:22:47.553Z,608.00
2024-04-21T08:23:47.555Z,602.00
2024-04-21T08:24:47.530Z,598.00
2024-04-21T08:25:47.526Z,600.00
2024-04-21T08:26:47.528Z,600.00
2024-04-21T08:27:47.539Z,606.00
2024-04-21T08:28:47.500Z,613.00
2024-04-21T08:29:47.499Z,612.00
2024-04-21T08:30:47.519Z,609.00
2024-04-21T08:31:47.511Z,607.00
2024-04-21T08:32:47.507Z,603.00
2024-04-21T08:33:47.471Z,606.00
2024-04-21T08:34:47.471Z,603.00
2024-04-21T08:35:47.454Z,611.00
2024-04-21T08:36:47.450Z,599.00
2024-04-21T08:37:47.441Z,603.00
2024-04-21T08:38:47.521Z,601.00
2024-04-21T08:39:47.421Z,602.00
2024-04-21T08:40:47.412Z,599.00
2024-04-21T08:41:47.431Z,603.00
2024-04-21T08:42:47.410Z,600.00
2024-04-21T08:43:47.399Z,601.00
2024-04-21T08:44:47.402Z,609.00
2024-04-21T08:45:47.406Z,607.00
2024-04-21T08:46:49.604Z,606.00
2024-04-21T08:47:47.440Z,606.00
2024-04-21T08:48:47.362Z,607.00
2024-04-21T08:49:47.366Z,611.00
2024-04-21T08:50:47.353Z,612.00
2024-04-21T08:51:47.334Z,611.00
2024-04-21T08:52:47.323Z,615.00
2024-04-21T08:53:47.312Z,607.00
2024-04-21T08:54:47.306Z,603.00
2024-04-21T08:55:47.288Z,606.00
2024-04-21T08:56:47.279Z,605.00
2024-04-21T08:57:47.279Z,603.00
2024-04-21T08:58:47.246Z,608.00
2024-04-21T08:59:47.256Z,600.00
2024-04-21T09:00:47.388Z,608.00
2024-04-21T09:01:47.309Z,606.00
2024-04-21T09:02:47.215Z,605.00
2024-04-21T09:03:47.242Z,600.00
2024-04-21T09:04:47.270Z,604.00
2024-04-21T09:05:47.199Z,614.00
2024-04-21T09:06:47.215Z,600.00
2024-04-21T09:07:47.227Z,604.00
2024-04-21T09:08:47.179Z,603.00
2024-04-21T09:09:47.182Z,604.00
2024-04-21T09:10:47.254Z,600.00
2024-04-21T09:11:47.162Z,602.00
2024-04-21T09:12:47.173Z,606.00
2024-04-21T09:13:47.151Z,605.00
2024-04-21T09:14:47.191Z,606.00
2024-04-21T09:15:47.144Z,600.00
2024-04-21T09:16:47.137Z,608.00
2024-04-21T09:17:47.191Z,607.00
2024-04-21T09:18:47.180Z,604.00
2024-04-21T09:19:47.117Z,601.00
2024-04-21T09:20:47.133Z,604.00
2024-04-21T09:21:47.108Z,612.00
2024-04-21T09:22:47.130Z,613.00
2024-04-21T09:23:47.168Z,609.00
2024-04-21T09:24:47.220Z,605.00
2024-04-21T09:25:47.259Z,602.00
2024-04-21T09:26:47.300Z,606.00
2024-04-21T09:27:47.329Z,607.00
2024-04-21T09:28:47.353Z,605.00
2024-04-21T09:29:47.392Z,603.00
2024-04-21T09:30:47.441Z,605.00
2024-04-21T09:31:47.471Z,604.00
2024-04-21T09:32:47.575Z,605.00
2024-04-21T09:33:47.551Z,601.00
2024-04-21T09:34:47.579Z,607.00
2024-04-21T09:35:47.614Z,605.00
2024-04-21T09:36:47.629Z,614.00
2024-04-21T09:37:47.666Z,616.00
2024-04-21T09:38:47.723Z,605.00
2024-04-21T09:39:47.765Z,611.00
2024-04-21T09:40:47.822Z,600.00
2024-04-21T09:41:47.871Z,610.00
2024-04-21T09:42:47.955Z,609.00
2024-04-21T09:43:47.975Z,604.00
2024-04-21T09:44:48.028Z,601.00
2024-04-21T09:45:48.093Z,606.00
2024-04-21T09:46:48.149Z,604.00
2024-04-21T09:47:48.282Z,608.00
2024-04-21T09:48:48.291Z,603.00
2024-04-21T09:49:48.334Z,603.00
2024-04-21T09:50:48.423Z,600.00
2024-04-21T09:51:48.463Z,611.00
2024-04-21T09:52:48.563Z,606.00
2024-04-21T09:53:48.549Z,606.00
2024-04-21T09:54:49.505Z,604.00
2024-04-21T09:55:48.589Z,602.00
2024-04-21T09:56:48.633Z,603.00
2024-04-21T09:57:48.667Z,606.00
2024-04-21T09:58:48.700Z,605.00
2024-04-21T09:59:48.736Z,612.00
2024-04-21T10:00:48.783Z,617.00
2024-04-21T10:01:48.826Z,609.00
2024-04-21T10:02:48.826Z,607.00
2024-04-21T10:03:48.947Z,601.00
2024-04-21T10:04:48.947Z,602.00
2024-04-21T10:05:48.938Z,602.00
2024-04-21T10:06:48.949Z,605.00
2024-04-21T10:07:48.980Z,608.00
2024-04-21T10:08:48.989Z,607.00
2024-04-21T10:09:49.032Z,611.00
2024-04-21T10:10:49.090Z,616.00
2024-04-21T10:11:49.127Z,612.00
2024-04-21T10:12:49.168Z,612.00
2024-04-21T10:13:49.191Z,610.00
2024-04-21T10:14:49.241Z,616.00
2024-04-21T10:15:49.254Z,610.00
2024-04-21T10:16:49.260Z,617.00
2024-04-21T10:17:49.342Z,608.00
2024-04-21T10:18:49.319Z,606.00
2024-04-21T10:19:49.359Z,609.00
2024-04-21T10:20:49.382Z,607.00
2024-04-21T10:21:49.405Z,609.00
2024-04-21T10:22:49.415Z,602.00
2024-04-21T10:23:49.429Z,604.00
2024-04-21T10:24:49.442Z,605.00
2024-04-21T10:25:51.702Z,606.00
2024-04-21T10:26:49.458Z,606.00
2024-04-21T10:27:49.436Z,605.00
2024-04-21T10:28:49.436Z,610.00
2024-04-21T10:29:49.413Z,600.00
2024-04-21T10:30:49.425Z,610.00
2024-04-21T10:31:51.553Z,609.00
2024-04-21T10:32:49.427Z,608.00
2024-04-21T10:33:49.393Z,609.00
2024-04-21T10:34:49.382Z,609.00
2024-04-21T10:35:49.371Z,608.00
2024-04-21T10:36:49.372Z,602.00
2024-04-21T10:37:51.595Z,605.00
2024-04-21T10:38:49.344Z,605.00
2024-04-21T10:39:49.337Z,606.00
2024-04-21T10:40:49.336Z,606.00
2024-04-21T10:41:49.335Z,604.00
2024-04-21T10:42:49.342Z,600.00
2024-04-21T10:43:51.229Z,601.00
2024-04-21T10:44:49.311Z,601.00
2024-04-21T10:45:49.299Z,601.00
2024-04-21T10:46:49.292Z,603.00
2024-04-21T10:47:49.383Z,603.00
2024-04-21T10:48:49.274Z,605.00
2024-04-21T10:49:52.558Z,612.00
2024-04-21T10:50:49.260Z,605.00
2024-04-21T10:51:49.259Z,612.00
2024-04-21T10:52:49.234Z,607.00
2024-04-21T10:53:49.224Z,608.00
2024-04-21T10:54:49.224Z,606.00
2024-04-21T10:55:50.936Z,602.00
2024-04-21T10:56:49.200Z,602.00
2024-04-21T10:57:49.190Z,599.00
2024-04-21T10:58:49.195Z,602.00
2024-04-21T10:59:49.190Z,604.00
2024-04-21T11:00:49.211Z,609.00
2024-04-21T11:01:51.435Z,613.00
2024-04-21T11:02:49.174Z,609.00
2024-04-21T11:03:49.144Z,612.00
2024-04-21T11:04:49.135Z,612.00
2024-04-21T11:05:49.157Z,607.00
2024-04-21T11:06:49.134Z,605.00
2024-04-21T11:07:52.089Z,605.00
2024-04-21T11:08:49.195Z,605.00
2024-04-21T11:10:11.137Z,591.00
2024-04-21T11:10:49.122Z,601.00
2024-04-21T11:11:49.112Z,606.00
2024-04-21T11:12:49.100Z,606.00
2024-04-21T11:13:51.097Z,601.00
2024-04-21T11:14:49.094Z,605.00
2024-04-21T11:15:49.069Z,606.00
2024-04-21T11:16:49.069Z,606.00
2024-04-21T11:17:49.156Z,614.00
2024-04-21T11:18:49.066Z,606.00
2024-04-21T11:19:51.161Z,608.00
2024-04-21T11:20:49.069Z,608.00
2024-04-21T11:21:49.027Z,610.00
2024-04-21T11:22:49.037Z,605.00
2024-04-21T11:23:49.018Z,615.00
2024-04-21T11:24:49.020Z,617.00
2024-04-21T11:25:51.211Z,614.00
2024-04-21T11:26:48.995Z,612.00
2024-04-21T11:27:49.000Z,615.00
2024-04-21T11:28:48.999Z,617.00
2024-04-21T11:29:48.988Z,619.00
2024-04-21T11:30:49.019Z,627.00
2024-04-21T11:31:49.009Z,631.00
2024-04-21T11:32:49.124Z,633.00
2024-04-21T11:33:49.001Z,649.00
2024-04-21T11:34:48.975Z,645.00
2024-04-21T11:35:48.982Z,647.00
2024-04-21T11:36:48.957Z,648.00
2024-04-21T11:37:50.117Z,649.00
2024-04-21T11:38:48.949Z,648.00
2024-04-21T11:39:48.938Z,650.00
2024-04-21T11:40:48.935Z,652.00
2024-04-21T11:41:48.926Z,658.00
2024-04-21T11:42:48.953Z,660.00
2024-04-21T11:43:48.933Z,683.00
2024-04-21T11:44:48.896Z,666.00
2024-04-21T11:45:48.881Z,675.00
2024-04-21T11:46:48.883Z,713.00
2024-04-21T11:47:49.002Z,716.00
2024-04-21T11:48:49.949Z,711.00
2024-04-21T11:49:48.855Z,690.00
2024-04-21T11:50:48.886Z,726.00
2024-04-21T11:51:48.857Z,729.00
2024-04-21T11:52:48.832Z,723.00
2024-04-21T11:53:48.827Z,711.00
2024-04-21T11:54:48.812Z,697.00
2024-04-21T11:55:48.807Z,690.00
2024-04-21T11:56:48.802Z,691.00
2024-04-21T11:57:48.806Z,678.00
2024-04-21T11:58:48.790Z,700.00
2024-04-21T11:59:48.773Z,677.00
2024-04-21T12:00:48.816Z,693.00
2024-04-21T12:01:50.496Z,704.00
2024-04-21T12:02:48.770Z,690.00
2024-04-21T12:03:48.792Z,720.00
2024-04-21T12:04:48.921Z,697.00
2024-04-21T12:05:48.836Z,697.00
2024-04-21T12:06:48.912Z,697.00
2024-04-21T12:07:48.946Z,700.00
2024-04-21T12:08:49.009Z,690.00
2024-04-21T12:09:49.046Z,702.00
2024-04-21T12:10:49.115Z,688.00
2024-04-21T12:11:49.144Z,699.00
2024-04-21T12:12:49.177Z,697.00
2024-04-21T12:13:49.222Z,694.00
2024-04-21T12:14:49.273Z,697.00
2024-04-21T12:15:49.349Z,682.00
2024-04-21T12:16:49.506Z,671.00
2024-04-21T12:17:49.441Z,674.00
2024-04-21T12:18:49.472Z,659.00
2024-04-21T12:19:49.504Z,663.00
2024-04-21T12:20:49.567Z,661.00
2024-04-21T12:21:49.561Z,656.00
2024-04-21T12:22:49.605Z,656.00
2024-04-21T12:23:49.616Z,657.00
2024-04-21T12:24:49.661Z,658.00
2024-04-21T12:25:49.671Z,658.00
2024-04-21T12:26:49.694Z,666.00
2024-04-21T12:27:49.724Z,662.00
2024-04-21T12:28:49.813Z,674.00